Terminal Aerodrome Forecast
Issued by NWS

Home | Current Version | Previous Version | Text Only | Print | Product List | Glossary On
Versions: 1 2 3 4 5 6 7 8 9 10 11 12
000
FTUS46 KMTR 270500
TAFMRY
TAF
KMRY 270538Z 2706/2806 VRB05KT P6SM BKN150
     FM270800 15004KT P6SM OVC100
     FM271100 11006KT P6SM VCSH SCT080 BKN150
     FM271800 VRB03KT P6SM SCT100 BKN150
     FM272200 30005KT P6SM BKN200
     FM280300 10003KT P6SM SKC=

USA.gov is the U.S. government's official web portal to all federal, state and local government web resources and services.